Time;durP1;ratioP1;P1;durP2;ratioP2;P2;SDS_P1;SDS_P2;PMS_P1;PMS_P2;Temp;Humidity;BMP_temperature;BMP_pressure;BME280_temperature;BME280_humidity;BME280_pressure;Samples;Min_cycle;Max_cycle;Signal;HPM_P1;HPM_P2
2023/04/15 00:01:24;;;;;;;13.70;4.97;;;10.50;99.90;;;;;;5117632;28;20425;-74
2023/04/15 00:03:51;;;;;;;11.52;4.75;;;10.50;99.90;;;;;;5121300;28;20035;-74
2023/04/15 00:06:18;;;;;;;10.60;4.43;;;10.50;99.90;;;;;;5121018;28;20104;-74
2023/04/15 00:08:44;;;;;;;11.23;4.28;;;10.50;99.90;;;;;;5121235;28;20100;-74
2023/04/15 00:11:11;;;;;;;8.70;5.05;;;10.50;99.90;;;;;;5121247;28;20031;-74
2023/04/15 00:13:37;;;;;;;14.40;5.40;;;10.40;99.90;;;;;;5121291;28;20039;-74
2023/04/15 00:16:03;;;;;;;15.63;5.15;;;10.30;99.90;;;;;;5121322;28;20051;-74
2023/04/15 00:18:29;;;;;;;15.30;5.30;;;10.40;99.90;;;;;;5120823;28;20332;-75
2023/04/15 00:20:54;;;;;;;13.18;5.68;;;10.40;99.90;;;;;;5120786;27;20036;-74
2023/04/15 00:23:20;;;;;;;11.85;5.45;;;10.40;99.90;;;;;;5120896;28;20050;-74
2023/04/15 00:25:46;;;;;;;13.20;5.72;;;10.50;99.90;;;;;;5120562;28;20040;-74
2023/04/15 00:28:12;;;;;;;13.68;5.55;;;10.40;99.90;;;;;;5119922;28;20042;-74
2023/04/15 00:30:38;;;;;;;12.02;5.55;;;10.30;99.90;;;;;;5119834;28;20079;-74
2023/04/15 00:33:04;;;;;;;13.15;5.90;;;10.30;99.90;;;;;;5120797;28;20447;-74
2023/04/15 00:35:33;;;;;;;12.15;5.95;;;10.30;99.90;;;;;;5120464;28;20115;-74
2023/04/15 00:37:59;;;;;;;16.67;6.30;;;10.30;99.90;;;;;;5120789;28;20088;-74
2023/04/15 00:40:25;;;;;;;12.10;6.13;;;10.30;99.90;;;;;;5120742;28;20039;-74
2023/04/15 00:42:51;;;;;;;15.57;6.65;;;10.20;99.90;;;;;;5120653;28;20374;-74
2023/04/15 00:45:17;;;;;;;17.25;6.75;;;10.10;99.90;;;;;;5120527;28;20047;-74
2023/04/15 00:47:43;;;;;;;13.77;6.65;;;10.20;99.90;;;;;;5120557;28;20068;-74
2023/04/15 00:50:11;;;;;;;13.55;6.45;;;10.10;99.90;;;;;;5119558;28;20036;-74
2023/04/15 00:52:37;;;;;;;13.68;7.07;;;10.10;99.90;;;;;;5120824;28;20042;-74
2023/04/15 00:55:04;;;;;;;16.33;6.85;;;9.90;99.90;;;;;;5119663;28;20475;-74
2023/04/15 00:57:30;;;;;;;16.02;7.57;;;9.90;99.90;;;;;;5120316;27;20040;-74
2023/04/15 00:59:56;;;;;;;16.77;7.00;;;10.00;99.90;;;;;;5120080;28;20333;-74
2023/04/15 01:02:22;;;;;;;11.98;6.72;;;10.00;99.90;;;;;;5101615;28;20099;-74
2023/04/15 01:04:48;;;;;;;15.07;6.90;;;10.10;99.90;;;;;;5100113;28;20367;-74
2023/04/15 01:07:14;;;;;;;11.18;6.30;;;10.10;99.90;;;;;;5098624;28;20123;-74
2023/04/15 01:09:41;;;;;;;14.57;7.60;;;10.00;99.90;;;;;;5098227;28;20421;-74
2023/04/15 01:12:09;;;;;;;13.90;7.15;;;10.00;99.90;;;;;;5098174;28;20372;-74
2023/04/15 01:14:35;;;;;;;14.82;6.72;;;10.00;99.90;;;;;;5098463;28;20420;-74
2023/04/15 01:17:01;;;;;;;13.20;6.68;;;10.00;99.90;;;;;;5097186;28;20071;-74
2023/04/15 01:19:27;;;;;;;16.45;7.50;;;9.90;99.90;;;;;;5098528;28;20044;-74
2023/04/15 01:21:53;;;;;;;14.30;6.55;;;9.80;99.90;;;;;;5098395;28;20376;-74
2023/04/15 01:24:20;;;;;;;16.55;7.38;;;9.70;99.90;;;;;;5098427;28;20326;-75
2023/04/15 01:26:46;;;;;;;11.10;6.38;;;9.60;99.90;;;;;;5097904;28;20051;-74
2023/04/15 01:29:12;;;;;;;14.48;7.72;;;9.70;99.90;;;;;;5098364;28;20043;-74
2023/04/15 01:31:38;;;;;;;12.90;7.45;;;9.70;99.90;;;;;;5097937;28;20329;-74
2023/04/15 01:34:03;;;;;;;14.02;7.32;;;9.80;99.90;;;;;;5097915;28;20051;-74
2023/04/15 01:36:29;;;;;;;12.57;6.88;;;9.80;99.90;;;;;;5098169;28;20111;-74
2023/04/15 01:38:56;;;;;;;11.57;6.78;;;9.80;99.90;;;;;;5098201;28;20337;-74
2023/04/15 01:41:26;;;;;;;16.25;6.93;;;9.70;99.90;;;;;;5096815;28;20047;-74
2023/04/15 01:43:52;;;;;;;11.38;6.18;;;9.70;99.90;;;;;;5099109;28;20298;-74
2023/04/15 01:46:18;;;;;;;11.18;7.00;;;9.60;99.90;;;;;;5096634;28;20059;-75
2023/04/15 01:48:43;;;;;;;11.95;6.75;;;9.50;99.90;;;;;;5097929;28;20043;-74
2023/04/15 01:51:09;;;;;;;11.88;6.30;;;9.50;99.90;;;;;;5097632;28;20115;-74
2023/04/15 01:53:35;;;;;;;13.52;7.00;;;9.50;99.90;;;;;;5097890;28;20093;-74
2023/04/15 01:56:01;;;;;;;10.48;6.47;;;9.50;99.90;;;;;;5097229;28;20056;-74
2023/04/15 01:58:26;;;;;;;12.80;6.70;;;9.40;99.90;;;;;;5097609;28;20047;-74
2023/04/15 02:00:52;;;;;;;12.45;6.60;;;9.30;99.90;;;;;;5097730;28;20124;-74
2023/04/15 02:03:18;;;;;;;14.05;6.65;;;9.20;99.90;;;;;;5097365;28;20043;-74
2023/04/15 02:05:44;;;;;;;12.83;6.43;;;9.20;99.90;;;;;;5059071;28;1096334;-74
2023/04/15 02:08:10;;;;;;;12.95;7.05;;;9.20;99.90;;;;;;5098658;28;20044;-74
2023/04/15 02:10:35;;;;;;;14.57;6.57;;;9.20;99.90;;;;;;5098602;28;20291;-74
2023/04/15 02:13:01;;;;;;;15.65;7.38;;;9.10;99.90;;;;;;5097259;28;20429;-74
2023/04/15 02:15:27;;;;;;;12.85;6.85;;;9.10;99.90;;;;;;5098561;28;20062;-74
2023/04/15 02:17:54;;;;;;;12.07;6.43;;;9.00;99.90;;;;;;5098447;28;20109;-74
2023/04/15 02:20:20;;;;;;;16.33;7.90;;;9.00;99.90;;;;;;5098388;28;20040;-75
2023/04/15 02:22:47;;;;;;;15.93;8.13;;;8.90;99.90;;;;;;5098389;28;20044;-75
2023/04/15 02:25:13;;;;;;;15.52;7.03;;;8.90;99.90;;;;;;5096728;28;20044;-75
2023/04/15 02:27:39;;;;;;;11.48;6.70;;;9.00;99.90;;;;;;5098250;28;20036;-75
2023/04/15 02:30:06;;;;;;;14.68;7.43;;;9.00;99.90;;;;;;5098213;28;20054;-75
2023/04/15 02:32:32;;;;;;;13.70;7.80;;;9.00;99.90;;;;;;5097849;28;20044;-75
2023/04/15 02:35:04;;;;;;;14.45;7.18;;;8.90;99.90;;;;;;5098174;28;20040;-75
2023/04/15 02:37:31;;;;;;;14.05;7.43;;;8.70;99.90;;;;;;5098097;28;20126;-75
2023/04/15 02:39:57;;;;;;;12.68;7.50;;;8.80;99.90;;;;;;5098114;28;20046;-75
2023/04/15 02:42:22;;;;;;;13.38;8.23;;;8.80;99.90;;;;;;5098023;28;20336;-75
2023/04/15 02:44:48;;;;;;;14.02;7.57;;;8.80;99.90;;;;;;5097966;28;20044;-75
2023/04/15 02:47:14;;;;;;;14.23;8.00;;;8.90;99.90;;;;;;5096636;28;20044;-74
2023/04/15 02:49:40;;;;;;;15.18;8.35;;;8.80;99.90;;;;;;5097569;28;20076;-74
2023/04/15 02:52:06;;;;;;;13.82;7.82;;;8.80;99.90;;;;;;5098002;28;20078;-74
2023/04/15 02:54:32;;;;;;;15.32;8.05;;;8.70;99.90;;;;;;5097742;28;20036;-74
2023/04/15 02:56:58;;;;;;;13.23;8.05;;;8.70;99.90;;;;;;5097109;28;20046;-74
2023/04/15 02:59:24;;;;;;;10.80;7.05;;;8.60;99.90;;;;;;5097747;28;20032;-74
2023/04/15 03:01:50;;;;;;;16.50;7.15;;;8.70;99.90;;;;;;5097625;28;20032;-74
2023/04/15 03:04:16;;;;;;;14.02;7.38;;;8.60;99.90;;;;;;5097437;28;20044;-74
2023/04/15 03:06:41;;;;;;;14.23;7.68;;;8.60;99.90;;;;;;5097334;28;20452;-75
2023/04/15 03:09:07;;;;;;;12.73;7.47;;;8.50;99.90;;;;;;5096166;28;20044;-74
2023/04/15 03:11:35;;;;;;;12.23;7.00;;;8.50;99.90;;;;;;5097486;28;20043;-74
2023/04/15 03:14:01;;;;;;;12.45;6.57;;;8.40;99.90;;;;;;5097184;28;20100;-74
2023/04/15 03:16:27;;;;;;;15.00;7.35;;;8.30;99.90;;;;;;5097446;28;20048;-75
2023/04/15 03:18:52;;;;;;;13.48;6.82;;;8.30;99.90;;;;;;5097340;28;20046;-75
2023/04/15 03:21:18;;;;;;;12.45;7.18;;;8.30;99.90;;;;;;5097311;28;20048;-75
2023/04/15 03:23:44;;;;;;;13.30;7.28;;;8.30;99.90;;;;;;5096910;28;20425;-75
2023/04/15 03:26:23;;;;;;;14.80;7.65;;;8.20;99.90;;;;;;5096631;28;20046;-75
2023/04/15 03:28:49;;;;;;;12.75;7.28;;;8.10;99.90;;;;;;5097291;28;20047;-75
2023/04/15 03:31:15;;;;;;;12.52;6.95;;;8.00;99.90;;;;;;5097210;28;20044;-75
2023/04/15 03:33:40;;;;;;;13.38;7.60;;;8.00;99.90;;;;;;5097141;28;20428;-75
2023/04/15 03:36:06;;;;;;;11.73;6.93;;;8.00;99.90;;;;;;5097079;28;20429;-75
2023/04/15 03:38:32;;;;;;;16.92;8.65;;;7.90;99.90;;;;;;5096868;28;20425;-75
2023/04/15 03:40:57;;;;;;;16.00;8.30;;;7.90;99.90;;;;;;5097029;28;20046;-75
2023/04/15 03:43:23;;;;;;;15.90;7.93;;;7.80;99.90;;;;;;5096584;28;20047;-75
2023/04/15 03:45:49;;;;;;;14.93;8.63;;;7.90;99.90;;;;;;5096749;28;20044;-75
2023/04/15 03:48:14;;;;;;;16.13;7.95;;;7.80;99.90;;;;;;5096946;28;20047;-75
2023/04/15 03:50:40;;;;;;;19.02;8.98;;;7.80;99.90;;;;;;5096952;28;20089;-75
2023/04/15 03:53:06;;;;;;;15.50;8.88;;;7.90;99.90;;;;;;5096642;28;20044;-75
2023/04/15 03:55:31;;;;;;;14.88;8.15;;;7.90;99.90;;;;;;5096467;28;20040;-75
2023/04/15 03:57:57;;;;;;;16.52;8.68;;;7.90;99.90;;;;;;5096897;28;20028;-75
2023/04/15 04:00:23;;;;;;;18.38;9.18;;;7.80;99.90;;;;;;5096864;28;20429;-75
2023/04/15 04:02:48;;;;;;;16.05;9.23;;;7.80;99.90;;;;;;5096844;28;20043;-75
2023/04/15 04:05:14;;;;;;;17.77;9.93;;;7.80;99.90;;;;;;5096707;28;20044;-75
2023/04/15 04:07:40;;;;;;;19.00;9.75;;;7.80;99.90;;;;;;5096337;28;20141;-75
2023/04/15 04:10:06;;;;;;;16.52;9.25;;;7.80;99.90;;;;;;5096501;28;20151;-76
2023/04/15 04:12:32;;;;;;;18.77;9.23;;;7.70;99.90;;;;;;5096900;28;20036;-75
2023/04/15 04:14:57;;;;;;;20.55;9.60;;;7.60;99.90;;;;;;5096732;28;20044;-75
2023/04/15 04:17:23;;;;;;;15.07;9.27;;;7.60;99.90;;;;;;5096436;28;20044;-75
2023/04/15 04:19:49;;;;;;;17.83;10.23;;;7.60;99.90;;;;;;5096787;28;20044;-75
2023/04/15 04:22:15;;;;;;;22.13;10.25;;;7.60;99.90;;;;;;5096581;28;20040;-75
2023/04/15 04:24:40;;;;;;;20.77;11.07;;;7.60;99.90;;;;;;5096465;28;20333;-75
2023/04/15 04:27:06;;;;;;;17.38;10.05;;;7.60;99.90;;;;;;5096233;28;20063;-74
2023/04/15 04:29:32;;;;;;;19.67;10.50;;;7.60;99.90;;;;;;5096595;28;20302;-75
2023/04/15 04:31:57;;;;;;;22.50;11.40;;;7.50;99.90;;;;;;5096524;28;20032;-75
2023/04/15 04:34:23;;;;;;;22.23;10.85;;;7.60;99.90;;;;;;5096412;28;20054;-75
2023/04/15 04:36:48;;;;;;;19.23;10.68;;;7.60;99.90;;;;;;5096631;28;20047;-75
2023/04/15 04:39:14;;;;;;;18.63;11.15;;;7.50;99.90;;;;;;5096538;28;20123;-75
2023/04/15 04:41:40;;;;;;;22.67;11.65;;;7.50;99.90;;;;;;5096591;28;20036;-75
2023/04/15 04:44:06;;;;;;;22.00;10.45;;;7.40;99.90;;;;;;5096341;28;20067;-75
2023/04/15 04:46:32;;;;;;;18.73;10.88;;;7.40;99.90;;;;;;5096421;28;20051;-75
2023/04/15 04:48:57;;;;;;;18.05;10.68;;;7.50;99.90;;;;;;5099576;28;20040;-75
2023/04/15 04:51:23;;;;;;;19.05;11.10;;;7.50;99.90;;;;;;5098915;28;20426;-75
2023/04/15 04:53:49;;;;;;;20.80;12.27;;;7.50;99.90;;;;;;5100109;28;20379;-75
2023/04/15 04:56:15;;;;;;;19.65;11.60;;;7.60;99.90;;;;;;5099608;28;20372;-75
2023/04/15 04:58:41;;;;;;;19.60;11.23;;;7.60;99.90;;;;;;5099998;28;20067;-75
2023/04/15 05:01:07;;;;;;;20.30;11.20;;;7.60;99.90;;;;;;5099683;28;20040;-75
2023/04/15 05:03:32;;;;;;;19.50;11.02;;;7.60;99.90;;;;;;5099651;28;20044;-75
2023/04/15 05:05:58;;;;;;;19.40;11.00;;;7.60;99.90;;;;;;5099590;28;20440;-75
2023/04/15 05:08:24;;;;;;;18.35;10.30;;;7.60;99.90;;;;;;5099502;28;20036;-75
2023/04/15 05:10:50;;;;;;;19.52;10.60;;;7.60;99.90;;;;;;5099811;28;20032;-76
2023/04/15 05:13:15;;;;;;;16.90;9.88;;;7.60;99.90;;;;;;5099495;28;20333;-75
2023/04/15 05:15:42;;;;;;;18.50;10.75;;;7.60;99.90;;;;;;5099757;28;20436;-75
2023/04/15 05:18:07;;;;;;;20.60;11.02;;;7.60;99.90;;;;;;5099692;28;20036;-75
2023/04/15 05:20:33;;;;;;;19.23;11.05;;;7.60;99.90;;;;;;5099593;28;20036;-75
2023/04/15 05:22:59;;;;;;;19.48;11.73;;;7.60;99.90;;;;;;5099459;28;20032;-75
2023/04/15 05:25:25;;;;;;;19.98;11.23;;;7.70;99.90;;;;;;5098980;28;20048;-76
2023/04/15 05:27:50;;;;;;;24.70;13.70;;;7.70;99.90;;;;;;5099388;28;20040;-75
2023/04/15 05:30:16;;;;;;;21.98;12.73;;;7.80;99.90;;;;;;5099159;28;20040;-75
2023/04/15 05:32:42;;;;;;;21.02;12.85;;;7.90;99.90;;;;;;5099008;28;20032;-75
2023/04/15 05:35:07;;;;;;;24.70;14.45;;;8.00;99.90;;;;;;5098965;28;20044;-75
2023/04/15 05:37:33;;;;;;;23.38;13.25;;;8.00;99.90;;;;;;5099184;28;20044;-75
2023/04/15 05:39:59;;;;;;;21.67;12.50;;;8.00;99.90;;;;;;5099244;28;20044;-75
2023/04/15 05:42:24;;;;;;;23.15;13.23;;;8.10;99.90;;;;;;5099129;28;20047;-75
2023/04/15 05:44:50;;;;;;;22.38;13.63;;;8.20;99.90;;;;;;5099035;28;20040;-75
2023/04/15 05:47:16;;;;;;;20.67;12.25;;;8.30;99.90;;;;;;5098977;28;20383;-75
2023/04/15 05:49:41;;;;;;;19.63;12.32;;;8.40;99.90;;;;;;5098631;28;20071;-75
2023/04/15 05:52:07;;;;;;;19.40;12.40;;;8.50;99.90;;;;;;5098967;28;20032;-75
2023/04/15 05:54:33;;;;;;;21.67;11.20;;;8.60;99.90;;;;;;5098872;28;20040;-75
2023/04/15 05:56:58;;;;;;;23.08;13.48;;;8.70;99.90;;;;;;5098463;28;20048;-75
2023/04/15 05:59:24;;;;;;;23.95;12.85;;;8.90;99.90;;;;;;5097597;28;20032;-75
2023/04/15 06:01:51;;;;;;;23.35;12.95;;;8.90;99.90;;;;;;5098452;28;20440;-75
2023/04/15 06:04:16;;;;;;;22.40;12.68;;;9.00;99.90;;;;;;5098837;28;20040;-75
2023/04/15 06:06:42;;;;;;;26.58;14.40;;;9.00;99.90;;;;;;5098147;28;20077;-75
2023/04/15 06:09:08;;;;;;;26.20;14.00;;;9.00;99.90;;;;;;5098648;28;20040;-75
2023/04/15 06:11:33;;;;;;;29.58;15.15;;;9.10;99.90;;;;;;5098496;28;20046;-75
2023/04/15 06:13:59;;;;;;;23.75;13.35;;;9.30;99.90;;;;;;5098491;28;20050;-75
2023/04/15 06:16:25;;;;;;;24.85;14.27;;;9.20;99.90;;;;;;5098236;28;20047;-74
2023/04/15 06:18:50;;;;;;;25.67;13.38;;;9.30;99.90;;;;;;5098496;28;20051;-74
2023/04/15 06:21:16;;;;;;;24.42;12.80;;;9.40;99.90;;;;;;5098389;28;20040;-74
2023/04/15 06:23:42;;;;;;;22.92;12.48;;;9.30;99.90;;;;;;5098329;28;20050;-74
2023/04/15 06:26:07;;;;;;;25.15;13.45;;;9.50;99.90;;;;;;5097886;28;20475;-74
2023/04/15 06:28:33;;;;;;;24.88;12.68;;;9.70;99.90;;;;;;5097991;28;20123;-74
2023/04/15 06:31:00;;;;;;;23.75;12.50;;;9.70;99.90;;;;;;5097802;28;20077;-74
2023/04/15 06:33:26;;;;;;;22.63;11.90;;;9.80;99.90;;;;;;5097902;28;20054;-74
2023/04/15 06:35:51;;;;;;;22.08;10.65;;;9.80;99.90;;;;;;5097854;28;20333;-75
2023/04/15 06:38:17;;;;;;;18.40;10.27;;;9.90;99.90;;;;;;5098063;28;20043;-75
2023/04/15 06:40:43;;;;;;;23.58;11.73;;;10.00;99.90;;;;;;5097002;28;20055;-75
2023/04/15 06:43:09;;;;;;;22.58;11.40;;;10.10;99.90;;;;;;5098027;28;20406;-75
2023/04/15 06:45:34;;;;;;;18.45;10.07;;;10.10;99.90;;;;;;5097832;28;20036;-75
2023/04/15 06:48:00;;;;;;;18.17;10.35;;;10.00;99.90;;;;;;5097931;28;20032;-75
2023/04/15 06:50:26;;;;;;;15.75;9.52;;;10.00;99.90;;;;;;5097933;28;20043;-75
2023/04/15 06:52:53;;;;;;;20.33;10.35;;;10.10;99.90;;;;;;5097798;28;20040;-75
2023/04/15 06:55:19;;;;;;;17.45;9.75;;;10.10;99.90;;;;;;5097541;28;20047;-74
2023/04/15 06:57:44;;;;;;;22.10;11.98;;;10.00;99.90;;;;;;5096646;28;20040;-75
2023/04/15 07:00:11;;;;;;;18.92;10.85;;;10.00;99.90;;;;;;5096907;28;20070;-75
2023/04/15 07:02:37;;;;;;;19.15;10.43;;;10.00;99.90;;;;;;5095681;28;20082;-75
2023/04/15 07:05:05;;;;;;;17.75;10.25;;;10.10;99.90;;;;;;5095278;28;20401;-75
2023/04/15 07:07:31;;;;;;;18.45;10.27;;;10.10;99.90;;;;;;5095706;28;20459;-75
2023/04/15 07:09:57;;;;;;;17.63;9.93;;;10.10;99.90;;;;;;5096188;28;20054;-75
2023/04/15 07:12:23;;;;;;;19.38;10.30;;;10.10;99.90;;;;;;5097037;28;20036;-75
2023/04/15 07:14:48;;;;;;;18.10;9.85;;;10.10;99.90;;;;;;5096445;28;20441;-76
2023/04/15 07:17:14;;;;;;;15.90;8.70;;;10.20;99.90;;;;;;5095522;28;20032;-75
2023/04/15 07:19:40;;;;;;;19.45;10.35;;;10.20;99.90;;;;;;5096818;28;20032;-75
2023/04/15 07:22:06;;;;;;;21.00;10.23;;;10.30;99.90;;;;;;5096325;28;20088;-74
2023/04/15 07:24:32;;;;;;;16.88;9.75;;;10.50;99.90;;;;;;5096843;28;20051;-75
2023/04/15 07:26:58;;;;;;;17.23;9.48;;;10.50;99.90;;;;;;5096113;28;20036;-74
2023/04/15 07:29:24;;;;;;;15.32;8.68;;;10.60;99.90;;;;;;5095874;28;20040;-74
2023/04/15 07:31:50;;;;;;;19.23;9.40;;;10.50;99.90;;;;;;5096935;28;20453;-74
2023/04/15 07:34:16;;;;;;;18.23;8.40;;;10.40;99.90;;;;;;5096849;28;20052;-74
2023/04/15 07:36:42;;;;;;;16.48;9.05;;;10.40;99.90;;;;;;5095863;28;20042;-74
2023/04/15 07:39:07;;;;;;;14.13;7.72;;;10.40;99.90;;;;;;5096752;28;20418;-72
2023/04/15 07:41:33;;;;;;;14.93;7.88;;;10.50;99.90;;;;;;5096999;28;20044;-73
2023/04/15 07:43:59;;;;;;;15.20;8.57;;;10.70;99.90;;;;;;5096833;28;20400;-73
2023/04/15 07:46:26;;;;;;;16.02;8.18;;;10.70;99.90;;;;;;5095721;28;20032;-73
2023/04/15 07:48:52;;;;;;;13.48;7.00;;;10.80;99.90;;;;;;5096952;28;20075;-73
2023/04/15 07:51:20;;;;;;;15.07;7.45;;;10.70;99.90;;;;;;5096550;28;20044;-68
2023/04/15 07:53:47;;;;;;;11.68;6.88;;;10.70;99.90;;;;;;5096539;28;20457;-68
2023/04/15 07:56:13;;;;;;;13.60;7.20;;;10.70;99.90;;;;;;5096483;28;20040;-68
2023/04/15 07:58:38;;;;;;;13.88;7.28;;;10.80;99.90;;;;;;5096779;28;20094;-68
2023/04/15 08:01:04;;;;;;;13.75;6.43;;;10.80;99.90;;;;;;5095815;28;20169;-68
2023/04/15 08:03:31;;;;;;;12.80;6.72;;;10.70;99.90;;;;;;5096704;28;20047;-67
2023/04/15 08:05:57;;;;;;;12.07;6.30;;;10.80;99.90;;;;;;5096298;28;20329;-68
2023/04/15 08:08:22;;;;;;;13.20;6.63;;;10.70;99.90;;;;;;5096878;28;20039;-68
2023/04/15 08:10:49;;;;;;;15.15;7.25;;;10.60;99.90;;;;;;5096745;28;20521;-68
2023/04/15 08:13:15;;;;;;;11.93;6.55;;;10.60;99.90;;;;;;5096736;28;20036;-68
2023/04/15 08:15:41;;;;;;;13.57;7.45;;;10.70;99.90;;;;;;5095611;28;20036;-69
2023/04/15 08:18:06;;;;;;;17.30;8.15;;;10.60;99.90;;;;;;5095677;28;20431;-69
2023/04/15 08:20:32;;;;;;;15.57;7.13;;;10.60;99.90;;;;;;5096720;28;20073;-69
2023/04/15 08:22:58;;;;;;;16.05;7.57;;;10.50;99.90;;;;;;5096892;28;20038;-69
2023/04/15 08:25:24;;;;;;;14.18;6.85;;;10.30;99.90;;;;;;5100497;28;20040;-69
2023/04/15 08:27:50;;;;;;;12.82;6.47;;;10.20;99.90;;;;;;5099963;28;20044;-69
2023/04/15 08:30:16;;;;;;;10.90;5.53;;;10.20;99.90;;;;;;5086194;28;20115;-71
2023/04/15 08:32:45;;;;;;;16.92;6.07;;;10.30;99.90;;;;;;5078147;28;20311;-70
2023/04/15 08:35:11;;;;;;;15.77;6.65;;;10.30;99.90;;;;;;5078233;28;20048;-66
2023/04/15 08:37:37;;;;;;;16.73;6.50;;;10.30;99.90;;;;;;5080093;28;20086;-66
2023/04/15 08:40:03;;;;;;;13.45;6.45;;;10.30;99.90;;;;;;5079998;28;20445;-67
2023/04/15 08:42:36;;;;;;;10.05;4.72;;;10.30;99.90;;;;;;5080084;28;20300;-69
2023/04/15 08:45:04;;;;;;;7.15;4.30;;;10.20;99.90;;;;;;5081096;28;20048;-70
2023/04/15 08:47:33;;;;;;;17.00;4.70;;;10.10;99.90;;;;;;5083342;28;20041;-69
2023/04/15 08:50:03;;;;;;;6.60;3.83;;;10.00;99.90;;;;;;5079719;28;20078;-67
2023/04/15 08:52:30;;;;;;;9.68;4.00;;;9.90;99.90;;;;;;5079628;28;20109;-67
2023/04/15 08:54:59;;;;;;;9.02;3.80;;;9.90;99.90;;;;;;5095829;28;20115;-69
2023/04/15 08:57:27;;;;;;;11.38;3.78;;;10.00;99.90;;;;;;5098238;28;20080;-68
2023/04/15 08:59:56;;;;;;;10.43;3.80;;;9.80;99.90;;;;;;5099933;28;20043;-69
2023/04/15 09:02:26;;;;;;;9.38;3.63;;;9.80;99.90;;;;;;5099928;28;20113;-68
2023/04/15 09:04:52;;;;;;;7.35;3.20;;;9.80;99.90;;;;;;5099839;28;20051;-68
2023/04/15 09:07:18;;;;;;;10.57;3.45;;;9.90;99.90;;;;;;5099346;28;20386;-68
2023/04/15 09:09:43;;;;;;;6.07;2.22;;;10.10;99.90;;;;;;5115892;28;20146;-69
2023/04/15 09:12:11;;;;;;;3.72;2.30;;;10.20;99.90;;;;;;5100009;28;20028;-69
2023/04/15 09:14:39;;;;;;;6.75;2.13;;;10.40;99.90;;;;;;5099670;28;20053;-69
2023/04/15 09:17:05;;;;;;;5.57;1.92;;;10.40;99.90;;;;;;5098650;28;20097;-69
2023/04/15 09:19:33;;;;;;;7.53;3.05;;;10.40;99.90;;;;;;5098610;28;20048;-69
2023/04/15 09:21:59;;;;;;;4.75;1.83;;;10.30;99.90;;;;;;5099204;28;20429;-69
2023/04/15 09:24:32;;;;;;;5.60;2.10;;;10.50;99.90;;;;;;5098065;28;20101;-69
2023/04/15 09:26:58;;;;;;;4.55;2.40;;;10.50;99.90;;;;;;5098192;28;20036;-69
2023/04/15 09:29:25;;;;;;;5.50;2.33;;;10.40;99.90;;;;;;5065005;28;20040;-69
2023/04/15 09:31:52;;;;;;;5.50;1.98;;;10.50;99.90;;;;;;5099341;28;20333;-69
2023/04/15 09:34:18;;;;;;;4.30;1.80;;;10.50;99.90;;;;;;5098020;28;20044;-68
2023/04/15 09:36:46;;;;;;;3.53;2.17;;;10.60;99.90;;;;;;5099293;28;20112;-68
2023/04/15 09:39:13;;;;;;;4.50;1.73;;;10.80;99.90;;;;;;5099195;28;20047;-69
2023/04/15 09:41:43;;;;;;;3.78;1.40;;;11.00;99.90;;;;;;5098089;28;20054;-68
2023/04/15 09:44:25;;;;;;;3.00;1.50;;;11.30;99.90;;;;;;5097991;28;20055;-69
2023/04/15 09:46:51;;;;;;;9.05;2.15;;;11.40;99.90;;;;;;5098811;28;20124;-74
2023/04/15 09:49:16;;;;;;;5.15;1.40;;;11.50;99.90;;;;;;5098482;28;20076;-79
2023/04/15 09:51:43;;;;;;;4.75;1.75;;;11.20;99.90;;;;;;5098588;28;20040;-77
2023/04/15 09:54:09;;;;;;;17.63;2.03;;;11.20;99.90;;;;;;5081762;28;20039;-81
2023/04/15 09:56:37;;;;;;;6.25;2.00;;;11.00;99.90;;;;;;5098554;28;20048;-81
2023/04/15 09:59:04;;;;;;;5.20;1.77;;;11.20;99.90;;;;;;5099394;28;20367;-81
2023/04/15 10:01:30;;;;;;;4.35;1.77;;;11.20;99.90;;;;;;5099371;28;20101;-81
2023/04/15 10:03:57;;;;;;;9.32;1.90;;;11.30;99.90;;;;;;5082014;28;20329;-81
2023/04/15 10:06:26;;;;;;;5.72;2.53;;;11.30;99.90;;;;;;5080918;28;20113;-82
2023/04/15 10:08:53;;;;;;;5.55;1.92;;;11.20;99.90;;;;;;5082680;28;20368;-81
2023/04/15 10:11:20;;;;;;;3.35;1.60;;;11.30;99.90;;;;;;5098679;28;20042;-81
2023/04/15 10:13:48;;;;;;;7.55;1.70;;;11.40;99.90;;;;;;5081254;28;20044;-81
2023/04/15 10:16:15;;;;;;;6.05;1.60;;;11.50;99.90;;;;;;5099849;28;20040;-81
2023/04/15 10:18:46;;;;;;;6.97;1.95;;;11.50;99.90;;;;;;5098287;28;20112;-81
2023/04/15 10:21:15;;;;;;;3.28;1.27;;;11.40;99.90;;;;;;5098097;28;20047;-82
2023/04/15 10:23:41;;;;;;;6.13;1.42;;;11.30;99.90;;;;;;5115082;28;20048;-84
2023/04/15 10:26:08;;;;;;;3.67;1.38;;;11.50;99.90;;;;;;5098941;28;20036;-78
2023/04/15 10:28:34;;;;;;;5.07;1.40;;;11.60;99.90;;;;;;5098627;28;20059;-68
2023/04/15 10:31:00;;;;;;;5.18;1.73;;;11.40;99.90;;;;;;5106413;28;20425;-75
2023/04/15 10:33:27;;;;;;;4.18;1.23;;;11.30;99.90;;;;;;5077812;28;20448;-74
2023/04/15 10:35:55;;;;;;;8.80;2.45;;;11.40;99.90;;;;;;5083149;28;20157;-74
2023/04/15 10:38:41;;;;;;;8.57;2.05;;;11.30;99.90;;;;;;5097086;28;20044;-77
2023/04/15 10:41:25;;;;;;;9.88;2.33;;;11.10;99.90;;;;;;5097158;28;20036;-77
2023/04/15 10:43:58;;;;;;;6.50;2.13;;;10.90;99.90;;;;;;5097148;28;20429;-79
2023/04/15 10:46:39;;;;;;;7.90;1.70;;;11.00;99.90;;;;;;5113680;28;20337;-80
2023/04/15 10:49:08;;;;;;;5.95;1.83;;;10.90;99.90;;;;;;5099883;28;20032;-80
2023/04/15 10:51:41;;;;;;;6.68;1.98;;;10.90;99.90;;;;;;5077884;28;20498;-79
2023/04/15 10:54:15;;;;;;;7.68;2.05;;;10.90;99.90;;;;;;5078505;28;20041;-80
2023/04/15 10:56:44;;;;;;;7.40;2.58;;;11.10;99.90;;;;;;5076327;28;20045;-81
2023/04/15 10:59:10;;;;;;;5.20;2.50;;;11.20;99.90;;;;;;5076474;28;20523;-80
2023/04/15 11:01:55;;;;;;;6.47;2.22;;;11.20;99.90;;;;;;5076574;28;20037;-80
2023/04/15 11:04:58;;;;;;;6.63;1.88;;;11.00;99.90;;;;;;5059732;28;20048;-80
2023/04/15 11:07:43;;;;;;;10.15;3.13;;;10.90;99.90;;;;;;5076218;28;20049;-80
2023/04/15 11:10:30;;;;;;;6.78;2.30;;;10.80;99.90;;;;;;5076888;28;20330;-82
2023/04/15 11:13:01;;;;;;;10.40;2.10;;;10.90;99.90;;;;;;5095436;28;20044;-80
2023/04/15 11:15:30;;;;;;;9.55;2.65;;;11.00;99.90;;;;;;5097776;28;20040;-81
2023/04/15 11:17:57;;;;;;;10.20;2.47;;;10.90;99.90;;;;;;5096237;28;20055;-78
2023/04/15 11:20:23;;;;;;;10.88;2.33;;;10.80;99.90;;;;;;5097665;28;20047;-80
2023/04/15 11:22:51;;;;;;;7.90;2.15;;;10.70;99.90;;;;;;5097750;28;20452;-79
2023/04/15 11:25:28;;;;;;;6.15;1.98;;;10.70;99.90;;;;;;5096611;28;20040;-79
2023/04/15 11:27:55;;;;;;;8.20;2.25;;;10.70;99.90;;;;;;5095341;28;20044;-79
2023/04/15 11:30:25;;;;;;;7.97;1.50;;;10.70;99.90;;;;;;5066815;28;20048;-81
2023/04/15 11:32:53;;;;;;;7.30;1.65;;;11.00;99.90;;;;;;5093052;28;20059;-80
2023/04/15 11:35:18;;;;;;;5.00;1.83;;;11.10;99.90;;;;;;5078298;28;20157;-81
2023/04/15 11:37:45;;;;;;;6.38;1.75;;;11.00;99.90;;;;;;5087874;28;20127;-80
2023/04/15 11:40:12;;;;;;;7.88;1.75;;;11.10;99.90;;;;;;5077168;28;20040;-80
2023/04/15 11:42:38;;;;;;;7.85;1.70;;;11.10;99.90;;;;;;5092096;28;20464;-77
2023/04/15 11:45:08;;;;;;;8.27;2.08;;;11.20;99.90;;;;;;5095303;28;20047;-80
2023/04/15 11:47:35;;;;;;;8.63;1.48;;;11.20;99.90;;;;;;5079108;28;20051;-84
2023/04/15 11:50:19;;;;;;;10.32;2.17;;;11.20;99.90;;;;;;5079598;28;20341;-79
2023/04/15 11:53:03;;;;;;;13.23;2.20;;;11.20;99.90;;;;;;5096252;28;20040;-81
2023/04/15 11:55:29;;;;;;;10.13;2.45;;;11.20;99.90;;;;;;5077407;28;20063;-80
2023/04/15 11:58:15;;;;;;;11.80;2.08;;;11.10;99.90;;;;;;5078701;28;20040;-81
2023/04/15 12:00:52;;;;;;;12.50;1.90;;;10.90;99.90;;;;;;5080253;28;20063;-80
2023/04/15 12:03:29;;;;;;;10.40;2.28;;;10.80;99.90;;;;;;5081967;28;20093;-79
2023/04/15 12:06:15;;;;;;;12.90;2.10;;;10.90;99.90;;;;;;5081283;28;20040;-80
2023/04/15 12:09:00;;;;;;;11.85;2.22;;;11.10;99.90;;;;;;5097058;28;20052;-80
2023/04/15 12:11:25;;;;;;;10.85;1.83;;;11.20;99.90;;;;;;5081075;28;20052;-80
2023/04/15 12:13:58;;;;;;;9.73;1.73;;;11.20;99.90;;;;;;5079801;28;20041;-80
2023/04/15 12:16:24;;;;;;;9.82;1.90;;;11.10;99.90;;;;;;5079698;28;20127;-82
2023/04/15 12:18:52;;;;;;;7.45;1.50;;;11.10;99.90;;;;;;5081058;28;20134;-81
2023/04/15 12:21:22;;;;;;;9.20;1.73;;;11.00;99.90;;;;;;5099920;28;20078;-77
2023/04/15 12:24:00;;;;;;;8.82;2.40;;;10.80;99.90;;;;;;5082870;28;20074;-69
2023/04/15 12:26:32;;;;;;;8.13;1.48;;;10.80;99.90;;;;;;5100095;28;20098;-68
2023/04/15 12:29:02;;;;;;;15.45;2.40;;;11.00;99.90;;;;;;5100096;28;20326;-70
2023/04/15 12:31:28;;;;;;;8.90;1.80;;;11.20;99.90;;;;;;5082446;28;20036;-71
2023/04/15 12:33:55;;;;;;;10.27;2.08;;;11.10;99.90;;;;;;5097967;28;20047;-73
2023/04/15 12:36:21;;;;;;;7.55;1.60;;;11.10;99.90;;;;;;5096562;28;20035;-71
2023/04/15 12:38:47;;;;;;;12.27;1.98;;;10.90;99.90;;;;;;5098352;28;20067;-71
2023/04/15 12:41:13;;;;;;;12.82;2.00;;;11.00;99.90;;;;;;5099324;28;20555;-74